Terminal Aerodrome Forecast
Issued by NWS

Home | Current Version | Previous Version | Text Only | Print | Product List | Glossary On
Versions: 1 2 3 4 5 6 7 8 9 10 11 12 13 14 15 16 17 18 19
581
FTUS43 KDLH 122339
TAFHIB
TAF
KHIB 122339Z 1300/1324 32010G17KT P6SM SKC
     FM130700 32008KT P6SM SKC
     FM131500 VRB03KT P6SM SKC=

USA.gov is the U.S. government's official web portal to all federal, state and local government web resources and services.